createdAt,value
2023-01-27T00:00:00.456Z,86
2023-01-27T00:04:00.579Z,86
2023-01-27T00:08:00.512Z,86
2023-01-27T00:12:00.500Z,86
2023-01-27T00:16:00.566Z,86
2023-01-27T00:20:02.998Z,86
2023-01-27T00:24:00.487Z,86
2023-01-27T00:28:00.488Z,86
2023-01-27T00:32:00.523Z,86
2023-01-27T00:36:01.446Z,86
2023-01-27T00:40:00.509Z,86
2023-01-27T00:44:00.476Z,86
2023-01-27T00:48:00.496Z,86
2023-01-27T00:52:00.501Z,86
2023-01-27T00:56:00.517Z,86
2023-01-27T01:00:00.495Z,86
2023-01-27T01:04:00.489Z,86
2023-01-27T01:08:00.523Z,86
2023-01-27T01:12:00.498Z,86
2023-01-27T01:16:00.541Z,86
2023-01-27T01:20:00.642Z,86
2023-01-27T01:24:00.556Z,86
2023-01-27T01:28:00.478Z,86
2023-01-27T01:32:00.507Z,87
2023-01-27T01:36:00.490Z,87
2023-01-27T01:40:00.496Z,87
2023-01-27T01:44:00.507Z,87
2023-01-27T01:48:00.506Z,87
2023-01-27T01:52:00.481Z,87
2023-01-27T01:56:00.497Z,87
2023-01-27T02:00:00.505Z,87
2023-01-27T02:04:00.482Z,87
2023-01-27T02:08:00.531Z,87
2023-01-27T02:12:00.479Z,87
2023-01-27T02:16:00.494Z,87
2023-01-27T02:20:00.499Z,87
2023-01-27T02:24:00.560Z,87
2023-01-27T02:28:00.498Z,87
2023-01-27T02:32:00.514Z,87
2023-01-27T02:36:00.496Z,87
2023-01-27T02:40:00.496Z,87
2023-01-27T02:44:00.496Z,87
2023-01-27T02:48:00.513Z,87
2023-01-27T02:52:00.495Z,87
2023-01-27T02:56:00.526Z,87
2023-01-27T03:00:01.572Z,87
2023-01-27T03:04:00.512Z,87
2023-01-27T03:08:00.469Z,87
2023-01-27T03:12:00.483Z,87
2023-01-27T03:16:00.534Z,87
2023-01-27T03:20:00.484Z,87
2023-01-27T03:24:00.532Z,87
2023-01-27T03:28:00.482Z,87
2023-01-27T03:32:00.512Z,87
2023-01-27T03:36:00.472Z,87
2023-01-27T03:40:00.479Z,87
2023-01-27T03:44:00.477Z,87
2023-01-27T03:48:00.747Z,87
2023-01-27T03:52:00.495Z,87
2023-01-27T03:56:00.489Z,87
2023-01-27T04:00:00.461Z,87
2023-01-27T04:04:00.482Z,87
2023-01-27T04:08:00.466Z,87
2023-01-27T04:12:00.627Z,87
2023-01-27T04:16:00.543Z,87
2023-01-27T04:20:00.476Z,87
2023-01-27T04:24:00.552Z,87
2023-01-27T04:28:00.520Z,87
2023-01-27T04:32:00.471Z,87
2023-01-27T04:36:00.502Z,87
2023-01-27T04:40:00.494Z,87
2023-01-27T04:44:00.500Z,87
2023-01-27T04:48:00.501Z,87
2023-01-27T04:52:00.552Z,87
2023-01-27T04:56:00.464Z,87
2023-01-27T05:00:00.490Z,87
2023-01-27T05:04:00.510Z,87
2023-01-27T05:08:00.504Z,87
2023-01-27T05:12:00.490Z,87
2023-01-27T05:16:00.592Z,87
2023-01-27T05:20:00.458Z,87
2023-01-27T05:24:00.509Z,87
2023-01-27T05:28:00.493Z,87
2023-01-27T05:32:00.546Z,87
2023-01-27T05:36:00.524Z,87
2023-01-27T05:40:00.467Z,87
2023-01-27T05:44:00.479Z,87
2023-01-27T05:48:00.481Z,87
2023-01-27T05:52:00.478Z,88
2023-01-27T05:56:00.506Z,88
2023-01-27T06:00:00.509Z,88
2023-01-27T06:04:00.477Z,88
2023-01-27T06:08:00.479Z,88
2023-01-27T06:12:00.504Z,88
2023-01-27T06:16:00.505Z,88
2023-01-27T06:20:00.505Z,88
2023-01-27T06:24:00.535Z,88
2023-01-27T06:28:00.508Z,88
2023-01-27T06:32:00.577Z,88
2023-01-27T06:36:00.493Z,88
2023-01-27T06:40:00.493Z,88
2023-01-27T06:44:00.497Z,88
2023-01-27T06:48:00.493Z,88
2023-01-27T06:52:00.496Z,88
2023-01-27T06:56:00.529Z,88
2023-01-27T07:00:00.497Z,88
2023-01-27T07:04:00.487Z,88
2023-01-27T07:08:00.499Z,88
2023-01-27T07:12:00.491Z,88
2023-01-27T07:16:00.594Z,88
2023-01-27T07:20:00.498Z,88
2023-01-27T07:24:00.540Z,88
2023-01-27T07:28:00.486Z,88
2023-01-27T07:32:00.575Z,88
2023-01-27T07:36:00.499Z,88
2023-01-27T07:40:00.499Z,88
2023-01-27T07:44:00.495Z,88
2023-01-27T07:48:00.519Z,88
2023-01-27T07:52:00.509Z,88
2023-01-27T07:56:00.523Z,88
2023-01-27T08:00:00.480Z,88
2023-01-27T08:04:00.489Z,88
2023-01-27T08:08:00.514Z,88
2023-01-27T08:12:00.496Z,88
2023-01-27T08:16:00.485Z,88
2023-01-27T08:20:00.500Z,88
2023-01-27T08:24:00.567Z,88
2023-01-27T08:28:00.481Z,88
2023-01-27T08:32:00.500Z,88
2023-01-27T08:36:00.491Z,88
2023-01-27T08:40:00.485Z,88
2023-01-27T08:44:00.495Z,88
2023-01-27T08:48:00.485Z,88
2023-01-27T08:52:00.499Z,88
2023-01-27T08:56:00.476Z,88
2023-01-27T09:00:00.540Z,88
2023-01-27T09:04:00.491Z,88
2023-01-27T09:08:00.508Z,88
2023-01-27T09:12:00.513Z,88
2023-01-27T09:16:00.550Z,88
2023-01-27T09:20:00.507Z,88
2023-01-27T09:24:00.564Z,88
2023-01-27T09:28:00.510Z,88
2023-01-27T09:32:00.595Z,89
2023-01-27T09:36:00.509Z,88
2023-01-27T09:40:00.501Z,88
2023-01-27T09:44:00.484Z,88
2023-01-27T09:48:00.509Z,88
2023-01-27T09:52:00.567Z,88
2023-01-27T09:56:00.496Z,88
2023-01-27T10:00:00.492Z,88
2023-01-27T10:04:00.513Z,88
2023-01-27T10:08:00.458Z,88
2023-01-27T10:12:00.491Z,88
2023-01-27T10:16:00.558Z,88
2023-01-27T10:20:00.507Z,89
2023-01-27T10:24:00.559Z,89
2023-01-27T10:28:00.513Z,89
2023-01-27T10:32:00.548Z,88
2023-01-27T10:36:00.475Z,88
2023-01-27T10:40:00.513Z,88
2023-01-27T10:44:00.500Z,88
2023-01-27T10:48:00.500Z,88
2023-01-27T10:52:00.486Z,88
2023-01-27T10:56:00.773Z,88
2023-01-27T11:00:29.663Z,88
2023-01-27T11:04:00.568Z,88
2023-01-27T11:08:00.481Z,88
2023-01-27T11:12:00.493Z,88
2023-01-27T11:16:00.510Z,88
2023-01-27T11:20:00.494Z,88
2023-01-27T11:24:00.534Z,88
2023-01-27T11:28:00.499Z,88
2023-01-27T11:32:00.642Z,88
2023-01-27T11:36:00.499Z,88
2023-01-27T11:40:00.531Z,88
2023-01-27T11:44:00.492Z,88
2023-01-27T11:48:00.500Z,88
2023-01-27T11:52:00.534Z,88
2023-01-27T11:56:00.483Z,88
2023-01-27T12:00:00.524Z,88
2023-01-27T12:04:00.597Z,88
2023-01-27T12:08:00.758Z,88
2023-01-27T12:12:00.562Z,88
2023-01-27T12:16:00.594Z,88
2023-01-27T12:20:00.521Z,88
2023-01-27T12:24:00.547Z,88
2023-01-27T12:28:00.476Z,88
2023-01-27T12:32:00.795Z,88
2023-01-27T12:36:00.831Z,87
2023-01-27T12:40:00.626Z,87
2023-01-27T12:44:00.760Z,87
2023-01-27T12:48:00.507Z,87
2023-01-27T12:52:01.231Z,87
2023-01-27T12:56:00.492Z,87
2023-01-27T13:00:00.490Z,87
2023-01-27T13:04:00.576Z,87
2023-01-27T13:08:00.478Z,87
2023-01-27T13:12:00.515Z,87
2023-01-27T13:16:00.567Z,87
2023-01-27T13:20:00.498Z,87
2023-01-27T13:24:00.585Z,87
2023-01-27T13:28:00.527Z,87
2023-01-27T13:32:00.590Z,87
2023-01-27T13:36:00.518Z,87
2023-01-27T13:40:00.536Z,87
2023-01-27T13:44:00.508Z,86
2023-01-27T13:48:00.541Z,86
2023-01-27T13:52:00.516Z,86
2023-01-27T13:56:00.505Z,86
2023-01-27T14:00:00.501Z,86
2023-01-27T14:04:00.514Z,86
2023-01-27T14:08:00.514Z,86
2023-01-27T14:12:00.532Z,86
2023-01-27T14:16:00.542Z,86
2023-01-27T14:20:00.524Z,86
2023-01-27T14:24:00.535Z,86
2023-01-27T14:28:00.602Z,86
2023-01-27T14:32:00.537Z,86
2023-01-27T14:36:00.516Z,86
2023-01-27T14:40:00.525Z,86
2023-01-27T14:44:00.513Z,86
2023-01-27T14:48:00.487Z,86
2023-01-27T14:52:00.485Z,86
2023-01-27T14:56:00.500Z,86
2023-01-27T15:00:00.516Z,86
2023-01-27T15:04:00.475Z,86
2023-01-27T15:08:00.480Z,87
2023-01-27T15:12:00.494Z,87
2023-01-27T15:16:00.486Z,87
2023-01-27T15:20:00.501Z,87
2023-01-27T15:24:00.537Z,87
2023-01-27T15:28:00.488Z,87
2023-01-27T15:32:00.678Z,87
2023-01-27T15:36:00.514Z,86
2023-01-27T15:40:07.678Z,86
2023-01-27T15:44:00.481Z,86
2023-01-27T15:48:00.538Z,86
2023-01-27T15:52:00.476Z,86
2023-01-27T15:56:00.502Z,86
2023-01-27T16:00:00.491Z,86
2023-01-27T16:04:00.515Z,86
2023-01-27T16:08:00.517Z,86
2023-01-27T16:12:00.517Z,86
2023-01-27T16:16:00.497Z,86
2023-01-27T16:20:00.510Z,86
2023-01-27T16:24:00.630Z,86
2023-01-27T16:28:00.609Z,86
2023-01-27T16:32:00.644Z,86
2023-01-27T16:36:00.507Z,86
2023-01-27T16:40:00.578Z,86
2023-01-27T16:44:00.523Z,86
2023-01-27T16:48:00.516Z,85
2023-01-27T16:52:00.514Z,85
2023-01-27T16:56:00.487Z,85
2023-01-27T17:00:00.526Z,85
2023-01-27T17:04:07.638Z,85
2023-01-27T17:08:00.488Z,84
2023-01-27T17:12:00.514Z,84
2023-01-27T17:16:00.612Z,84
2023-01-27T17:20:00.486Z,84
2023-01-27T17:24:00.559Z,84
2023-01-27T17:28:00.494Z,83
2023-01-27T17:32:00.629Z,83
2023-01-27T17:36:00.753Z,83
2023-01-27T17:40:00.504Z,83
2023-01-27T17:44:00.520Z,83
2023-01-27T17:48:00.495Z,83
2023-01-27T17:52:00.493Z,83
2023-01-27T17:56:00.511Z,83
2023-01-27T18:00:00.521Z,82
2023-01-27T18:04:00.510Z,82
2023-01-27T18:08:00.481Z,82
2023-01-27T18:12:00.532Z,82
2023-01-27T18:16:00.537Z,82
2023-01-27T18:20:00.506Z,82
2023-01-27T18:24:00.507Z,82
2023-01-27T18:28:00.505Z,82
2023-01-27T18:32:00.630Z,82
2023-01-27T18:36:00.539Z,82
2023-01-27T18:40:00.558Z,82
2023-01-27T18:44:00.509Z,82
2023-01-27T18:48:00.552Z,82
2023-01-27T18:52:00.515Z,82
2023-01-27T18:56:00.522Z,81
2023-01-27T19:00:00.542Z,81
2023-01-27T19:04:00.514Z,81
2023-01-27T19:08:00.506Z,81
2023-01-27T19:12:00.497Z,81
2023-01-27T19:16:00.562Z,81
2023-01-27T19:20:00.505Z,81
2023-01-27T19:24:00.509Z,80
2023-01-27T19:28:00.510Z,80
2023-01-27T19:32:00.541Z,80
2023-01-27T19:36:00.491Z,79
2023-01-27T19:40:00.516Z,79
2023-01-27T19:44:00.502Z,79
2023-01-27T19:48:00.515Z,79
2023-01-27T19:52:00.495Z,79
2023-01-27T19:56:00.519Z,79
2023-01-27T20:00:00.546Z,79
2023-01-27T20:04:00.654Z,79
2023-01-27T20:08:00.497Z,79
2023-01-27T20:12:00.475Z,79
2023-01-27T20:16:00.497Z,79
2023-01-27T20:20:00.502Z,78
2023-01-27T20:24:00.575Z,78
2023-01-27T20:28:00.508Z,78
2023-01-27T20:32:00.518Z,78
2023-01-27T20:36:00.807Z,78
2023-01-27T20:40:00.504Z,78
2023-01-27T20:44:00.574Z,78
2023-01-27T20:48:00.503Z,78
2023-01-27T20:52:00.488Z,78
2023-01-27T20:56:00.506Z,78
2023-01-27T21:00:00.519Z,78
2023-01-27T21:04:00.561Z,78
2023-01-27T21:08:00.585Z,78
2023-01-27T21:12:00.614Z,78
2023-01-27T21:16:00.582Z,78
2023-01-27T21:20:00.575Z,78
2023-01-27T21:24:00.621Z,78
2023-01-27T21:28:00.591Z,78
2023-01-27T21:32:00.630Z,78
2023-01-27T21:36:00.615Z,78
2023-01-27T21:40:00.572Z,78
2023-01-27T21:44:00.533Z,78
2023-01-27T21:48:00.554Z,78
2023-01-27T21:52:00.812Z,77
2023-01-27T21:56:00.508Z,77
2023-01-27T22:00:00.497Z,77
2023-01-27T22:04:00.586Z,77
2023-01-27T22:08:00.553Z,77
2023-01-27T22:12:00.602Z,77
2023-01-27T22:16:00.636Z,77
2023-01-27T22:20:00.540Z,77
2023-01-27T22:24:00.614Z,77
2023-01-27T22:28:00.556Z,77
2023-01-27T22:32:00.500Z,77
2023-01-27T22:36:00.585Z,77
2023-01-27T22:40:00.540Z,78
2023-01-27T22:44:00.528Z,78
2023-01-27T22:48:00.555Z,78
2023-01-27T22:52:00.628Z,77
2023-01-27T22:56:00.514Z,77
2023-01-27T23:00:00.508Z,77
2023-01-27T23:04:00.601Z,77
2023-01-27T23:08:00.600Z,78
2023-01-27T23:12:00.550Z,78
2023-01-27T23:16:00.581Z,78
2023-01-27T23:20:00.581Z,78
2023-01-27T23:24:00.689Z,78
2023-01-27T23:28:00.577Z,78
2023-01-27T23:32:00.815Z,78
2023-01-27T23:36:00.572Z,79
2023-01-27T23:40:00.602Z,79
2023-01-27T23:44:00.537Z,79
2023-01-27T23:48:00.572Z,79
2023-01-27T23:52:00.568Z,79
2023-01-27T23:56:00.596Z,79
